Time;durP1;ratioP1;P1;durP2;ratioP2;P2;SDS_P1;SDS_P2;PMS_P1;PMS_P2;Temp;Humidity;BMP_temperature;BMP_pressure;BME280_temperature;BME280_humidity;BME280_pressure;Samples;Min_cycle;Max_cycle;Signal;HPM_P1;HPM_P2
2023/08/25 00:01:26;;;;;;;10.13;3.70;;;;;;;-145.68;49.31;72048.94;10498292;28;20184;-65
2023/08/25 00:06:27;;;;;;;6.18;3.85;;;;;;;-145.68;49.33;72054.94;10497581;28;20195;-64
2023/08/25 00:11:27;;;;;;;6.72;3.58;;;;;;;-145.68;49.48;72068.91;10497434;28;20229;-65
2023/08/25 00:16:28;;;;;;;6.85;4.00;;;;;;;-145.68;49.86;72088.91;10497379;28;20190;-65
2023/08/25 00:21:29;;;;;;;7.90;4.00;;;;;;;-145.68;49.41;72082.91;10496156;28;20207;-64
2023/08/25 00:26:31;;;;;;;7.50;4.10;;;;;;;-145.68;49.52;72088.91;10496768;28;20230;-65
2023/08/25 00:31:32;;;;;;;5.65;3.80;;;;;;;-145.68;49.72;72098.88;10478727;28;20693;-64
2023/08/25 00:36:32;;;;;;;7.57;3.83;;;;;;;-145.68;50.23;72122.88;10478643;28;20191;-65
2023/08/25 00:41:33;;;;;;;5.72;3.70;;;;;;;-145.68;50.43;72130.84;10496565;28;20258;-65
2023/08/25 00:46:33;;;;;;;8.40;3.90;;;;;;;-145.68;50.89;72144.84;10495704;28;20227;-64
2023/08/25 00:51:34;;;;;;;7.47;3.67;;;;;;;-145.68;50.50;72128.84;10478079;28;20215;-64
2023/08/25 00:56:35;;;;;;;9.52;3.83;;;;;;;-145.68;51.20;72164.81;10495625;28;20187;-65
2023/08/25 01:01:35;;;;;;;9.27;4.18;;;;;;;-145.68;51.40;72174.81;10494837;28;20553;-65
2023/08/25 01:06:37;;;;;;;9.15;3.75;;;;;;;-145.68;51.47;72180.81;10495292;28;20187;-65
2023/08/25 01:11:44;;;;;;;6.38;3.47;;;;;;;-145.68;50.93;72162.81;10470429;22;20291;-70
2023/08/25 01:16:55;;;;;;;8.48;3.20;;;;;;;-145.68;51.17;72182.81;10436093;28;20726;-71
2023/08/25 01:21:58;;;;;;;6.05;4.05;;;;;;;-145.68;51.19;72178.81;10435664;28;20231;-70
2023/08/25 01:26:59;;;;;;;5.63;3.38;;;;;;;-145.68;51.01;72182.81;10435632;28;20193;-70
2023/08/25 01:31:59;;;;;;;6.38;3.55;;;;;;;-145.68;51.18;72196.78;10435695;28;20704;-70
2023/08/25 01:37:16;;;;;;;7.55;3.70;;;;;;;-145.68;50.82;72176.81;10452665;28;20188;-71
2023/08/25 01:42:17;;;;;;;6.65;3.78;;;;;;;-145.68;51.05;72196.78;10435059;28;20219;-70
2023/08/25 01:47:19;;;;;;;6.43;3.20;;;;;;;-145.68;50.96;72196.78;10435086;28;20188;-72
2023/08/25 01:52:20;;;;;;;7.72;4.03;;;;;;;-145.68;51.28;72220.78;10452813;28;20195;-71
2023/08/25 01:57:20;;;;;;;10.57;3.75;;;;;;;-145.68;51.06;72208.78;10434697;28;20187;-70
2023/08/25 02:02:21;;;;;;;5.97;3.97;;;;;;;-145.68;51.41;72218.78;10451181;28;20234;-70
2023/08/25 02:07:23;;;;;;;8.32;3.55;;;;;;;-145.68;51.86;72232.75;10452200;28;20685;-70
2023/08/25 02:12:23;;;;;;;7.40;3.92;;;;;;;-145.68;52.19;72248.75;10493739;28;20193;-71
2023/08/25 02:17:23;;;;;;;6.53;3.75;;;;;;;-145.68;52.81;72260.72;10493695;28;20531;-71
2023/08/25 02:22:24;;;;;;;11.27;4.18;;;;;;;-145.68;52.83;72248.75;10493639;28;20215;-71
2023/08/25 02:27:24;;;;;;;9.48;4.15;;;;;;;-145.68;52.87;72234.75;10493495;28;20188;-71
2023/08/25 02:32:25;;;;;;;7.05;3.80;;;;;;;-145.68;53.04;72228.75;10493516;28;20229;-71
2023/08/25 02:37:25;;;;;;;10.73;3.67;;;;;;;-145.68;53.06;72212.78;10493170;28;20183;-71
2023/08/25 02:42:25;;;;;;;5.72;3.53;;;;;;;-145.68;53.30;72210.78;10493263;28;20207;-70
2023/08/25 02:47:26;;;;;;;8.25;3.65;;;;;;;-145.68;53.59;72222.78;10479478;28;20202;-70
2023/08/25 02:52:26;;;;;;;7.00;3.15;;;;;;;-145.68;53.84;72212.78;10482945;28;20188;-70
2023/08/25 02:57:27;;;;;;;7.13;4.20;;;;;;;-145.68;54.49;72224.78;10500839;28;20184;-69
2023/08/25 03:02:28;;;;;;;7.65;3.25;;;;;;;-145.68;55.11;72256.75;10476227;28;20696;-71
2023/08/25 03:07:28;;;;;;;7.75;3.10;;;;;;;-145.68;56.55;72296.69;10458470;28;20197;-72
2023/08/25 03:12:29;;;;;;;8.25;2.97;;;;;;;-145.68;57.58;72328.69;10457060;28;20615;-72
2023/08/25 03:17:30;;;;;;;5.85;3.20;;;;;;;-145.68;58.46;72350.66;10408836;28;20246;-71
2023/08/25 03:22:30;;;;;;;6.43;3.63;;;;;;;-145.68;59.21;72366.63;10415863;28;20228;-70
2023/08/25 03:27:34;;;;;;;6.95;3.65;;;;;;;-145.68;60.26;72392.63;10415719;28;20244;-71
2023/08/25 03:32:35;;;;;;;8.13;3.50;;;;;;;-145.68;60.83;72384.63;10416883;28;20259;-71
2023/08/25 03:37:35;;;;;;;4.20;3.15;;;;;;;-145.68;61.72;72406.59;10415212;28;20208;-71
2023/08/25 03:42:37;;;;;;;4.22;3.13;;;;;;;-145.68;63.40;72448.56;10415146;28;20695;-71
2023/08/25 03:47:37;;;;;;;10.77;3.72;;;;;;;-145.68;64.52;72460.56;10414961;28;20215;-72
2023/08/25 03:52:40;;;;;;;5.15;3.60;;;;;;;-145.68;64.97;72476.53;10414617;28;20246;-70
2023/08/25 03:57:41;;;;;;;8.85;3.15;;;;;;;-145.68;65.55;72478.53;10397875;28;20209;-71
2023/08/25 04:02:41;;;;;;;6.95;3.20;;;;;;;-145.68;64.42;72456.56;10415295;28;20598;-70
2023/08/25 04:07:42;;;;;;;5.22;3.30;;;;;;;-145.68;62.93;72432.59;10415124;28;20233;-72
2023/08/25 04:12:42;;;;;;;8.20;3.40;;;;;;;-145.68;62.12;72408.59;10397624;28;20276;-72
2023/08/25 04:17:42;;;;;;;6.72;3.45;;;;;;;-145.68;62.17;72406.59;10414852;28;20227;-71
2023/08/25 04:22:43;;;;;;;7.57;3.60;;;;;;;-145.68;62.13;72408.59;10415207;28;20682;-70
2023/08/25 04:27:43;;;;;;;10.13;3.50;;;;;;;-145.68;63.16;72424.59;10396635;28;20296;-71
2023/08/25 04:32:44;;;;;;;7.60;3.38;;;;;;;-145.68;63.52;72416.59;10428121;28;20180;-70
2023/08/25 04:37:47;;;;;;;5.80;3.33;;;;;;;-145.68;64.56;72420.59;10453913;28;20211;-71
2023/08/25 04:42:48;;;;;;;5.93;2.85;;;;;;;-145.68;64.94;72416.59;10450436;28;20279;-72
2023/08/25 04:47:48;;;;;;;7.05;3.28;;;;;;;-145.68;65.47;72418.59;10433040;28;20277;-70
2023/08/25 04:52:48;;;;;;;7.47;2.78;;;;;;;-145.68;66.94;72440.56;10432365;28;20183;-71
2023/08/25 04:57:49;;;;;;;4.75;2.92;;;;;;;-145.68;66.98;72424.59;10420816;28;20204;-71
2023/08/25 05:02:49;;;;;;;3.28;2.78;;;;;;;-145.68;66.91;72404.59;10395475;28;20228;-71
2023/08/25 05:07:52;;;;;;;8.05;2.53;;;;;;;-145.68;67.26;72384.63;10411260;28;20240;-70
2023/08/25 05:12:53;;;;;;;5.00;2.45;;;;;;;-145.68;66.62;72356.66;10395403;28;20189;-69
2023/08/25 05:17:53;;;;;;;4.10;2.88;;;;;;;-145.68;65.92;72328.69;10411196;28;20847;-71
2023/08/25 05:22:53;;;;;;;4.32;2.67;;;;;;;-145.68;65.71;72300.69;10416473;28;20545;-70
2023/08/25 05:27:56;;;;;;;5.47;2.35;;;;;;;-145.68;64.34;72260.72;10429024;28;20590;-71
2023/08/25 05:32:56;;;;;;;5.40;2.13;;;;;;;-145.68;63.32;72216.78;10431474;28;20188;-71
2023/08/25 05:38:15;;;;;;;2.92;2.33;;;;;;;-145.68;63.10;72186.81;10453255;28;20627;-71
2023/08/25 05:43:16;;;;;;;2.10;1.90;;;;;;;-145.68;62.43;72158.84;10452901;28;20223;-70
2023/08/25 05:48:16;;;;;;;5.25;2.17;;;;;;;-145.68;61.46;72092.91;10435085;28;20261;-71
2023/08/25 05:53:17;;;;;;;4.13;2.50;;;;;;;-145.68;60.24;72024.97;10451360;28;20188;-71
2023/08/25 05:58:17;;;;;;;5.03;2.50;;;;;;;-145.68;59.76;71996.97;10451355;28;20212;-71
2023/08/25 06:03:18;;;;;;;2.88;2.50;;;;;;;-145.68;58.39;71949.03;10452608;28;20227;-70
2023/08/25 06:08:19;;;;;;;5.35;2.63;;;;;;;-145.68;58.66;71983.00;10452137;28;20585;-70
2023/08/25 06:13:19;;;;;;;5.22;2.90;;;;;;;-145.68;58.60;71931.06;10438757;28;20193;-68
2023/08/25 06:18:20;;;;;;;5.22;2.85;;;;;;;-145.68;57.50;71913.06;10433416;28;20211;-68
2023/08/25 06:23:21;;;;;;;5.50;2.80;;;;;;;-145.68;60.01;72040.94;10434761;28;20597;-69
2023/08/25 06:28:21;;;;;;;4.80;2.63;;;;;;;-145.68;60.24;71989.00;10418455;28;20354;-70
2023/08/25 06:33:21;;;;;;;3.08;2.67;;;;;;;-145.68;59.75;72016.97;10430908;28;20713;-69
2023/08/25 06:38:22;;;;;;;4.88;2.47;;;;;;;-145.68;60.01;71971.00;10438173;28;20207;-69
2023/08/25 06:43:23;;;;;;;4.25;3.00;;;;;;;-145.68;58.63;71931.06;10438439;28;20213;-69
2023/08/25 06:48:23;;;;;;;5.88;3.00;;;;;;;-145.68;57.50;71971.00;10419235;28;20240;-68
2023/08/25 06:53:23;;;;;;;8.20;3.45;;;;;;;-145.68;59.44;71951.03;10426113;28;20195;-70
2023/08/25 06:58:24;;;;;;;3.28;2.50;;;;;;;-145.68;58.46;71941.03;10455675;28;20613;-69
2023/08/25 07:03:24;;;;;;;6.68;3.13;;;;;;;-145.68;57.57;71933.03;10458094;28;20226;-68
2023/08/25 07:08:28;;;;;;;5.25;3.15;;;;;;;-145.68;57.38;71961.03;10470692;22;20242;-64
2023/08/25 07:13:28;;;;;;;5.47;2.70;;;;;;;-145.68;57.81;71947.03;10454416;28;20226;-65
2023/08/25 07:18:29;;;;;;;4.80;2.88;;;;;;;-145.68;56.21;71877.09;10434984;28;20228;-62
2023/08/25 07:23:29;;;;;;;6.72;2.63;;;;;;;-145.68;54.97;71781.19;10413050;28;20216;-64
2023/08/25 07:28:30;;;;;;;3.80;2.67;;;;;;;-145.68;53.46;71761.22;10379517;28;20232;-65
2023/08/25 07:33:30;;;;;;;3.10;2.30;;;;;;;-145.68;54.21;71853.13;10373218;28;20189;-64
2023/08/25 07:38:30;;;;;;;3.65;2.55;;;;;;;-145.68;56.38;71915.06;10398198;28;20311;-65
2023/08/25 07:43:31;;;;;;;5.72;2.63;;;;;;;-145.68;55.71;71829.16;10397183;28;20239;-65
2023/08/25 07:48:32;;;;;;;4.47;2.50;;;;;;;-145.68;52.44;71707.28;10390466;28;20242;-65
2023/08/25 07:53:32;;;;;;;3.78;2.00;;;;;;;-145.68;51.34;71725.25;10371705;28;20562;-65
2023/08/25 07:58:33;;;;;;;6.90;2.70;;;;;;;-145.68;51.30;71663.31;10381583;28;20212;-64
2023/08/25 08:03:33;;;;;;;2.50;2.30;;;;;;;-145.68;49.99;71645.34;10416045;28;20219;-65
2023/08/25 08:08:33;;;;;;;4.00;2.40;;;;;;;-145.68;49.71;71597.41;10414450;28;20244;-64
2023/08/25 08:13:34;;;;;;;5.72;2.35;;;;;;;-145.68;51.11;71679.31;10415903;28;20211;-66
2023/08/25 08:18:34;;;;;;;4.25;2.42;;;;;;;-145.68;49.12;71545.44;10393086;28;20211;-65
2023/08/25 08:23:35;;;;;;;7.30;2.40;;;;;;;-145.68;49.30;71587.41;10386042;28;20247;-64
2023/08/25 08:28:35;;;;;;;4.15;2.22;;;;;;;-145.68;49.77;71681.31;10389214;28;20921;-65
2023/08/25 08:33:37;;;;;;;5.43;2.13;;;;;;;-145.68;47.44;71483.53;10393102;28;20190;-65
2023/08/25 08:38:37;;;;;;;3.78;2.17;;;;;;;-145.68;46.84;71569.44;10421872;28;20208;-66
2023/08/25 08:43:41;;;;;;;5.90;2.17;;;;;;;-145.68;45.65;71473.53;10392816;28;20216;-65
2023/08/25 08:48:43;;;;;;;6.47;2.15;;;;;;;-145.68;45.68;71463.53;10418316;28;20740;-67
2023/08/25 08:53:43;;;;;;;2.42;1.83;;;;;;;-145.68;46.22;71499.50;10384079;28;20195;-66
2023/08/25 08:58:43;;;;;;;7.10;2.10;;;;;;;-145.68;43.76;71399.63;10409000;28;20206;-66
2023/08/25 09:03:47;;;;;;;5.25;1.88;;;;;;;-145.68;42.53;71249.78;10400636;28;20211;-66
2023/08/25 09:08:50;;;;;;;3.25;1.83;;;;;;;-145.68;42.40;71341.69;10391515;28;20255;-65
2023/08/25 09:13:54;;;;;;;3.95;2.00;;;;;;;-145.68;41.62;71393.63;10392887;28;20211;-65
2023/08/25 09:18:55;;;;;;;3.20;1.60;;;;;;;-145.68;41.24;71345.69;10393237;28;20216;-66
2023/08/25 09:24:00;;;;;;;4.70;1.73;;;;;;;-145.68;43.19;71511.50;10380574;28;20246;-66
2023/08/25 09:29:00;;;;;;;4.25;1.83;;;;;;;-145.68;43.10;71453.56;10424585;28;20220;-67
2023/08/25 09:34:02;;;;;;;4.75;1.60;;;;;;;-145.68;40.86;71301.72;10397731;28;20652;-66
2023/08/25 09:39:03;;;;;;;3.25;1.70;;;;;;;-145.68;39.18;71099.97;10393284;28;20208;-66
2023/08/25 09:44:03;;;;;;;3.33;1.80;;;;;;;-145.68;38.68;71177.88;10381266;28;20247;-66
2023/08/25 09:49:05;;;;;;;3.15;1.80;;;;;;;-145.68;40.83;71269.75;10386846;28;20212;-67
2023/08/25 09:54:09;;;;;;;2.30;1.50;;;;;;;-145.68;38.65;71089.97;10381738;28;20190;-66
2023/08/25 09:59:11;;;;;;;6.18;1.73;;;;;;;-145.68;38.92;71087.97;10394831;28;20219;-66
2023/08/25 10:04:13;;;;;;;2.83;1.80;;;;;;;-145.68;42.07;71429.59;10381172;28;20232;-66
2023/08/25 10:09:13;;;;;;;1.42;1.33;;;;;;;-145.68;40.68;71245.78;10386616;28;20240;-66
2023/08/25 10:14:13;;;;;;;1.73;1.30;;;;;;;-145.68;38.92;71329.69;10420344;28;20722;-66
2023/08/25 10:19:15;;;;;;;3.30;1.52;;;;;;;-145.68;40.83;71395.63;10426228;28;20216;-66
2023/08/25 10:24:18;;;;;;;2.63;1.83;;;;;;;-145.68;40.31;71403.63;10425535;28;20695;-65
2023/08/25 10:29:23;;;;;;;6.70;1.73;;;;;;;-145.68;39.43;71235.81;10412630;28;20224;-66
2023/08/25 10:34:42;;;;;;;3.88;1.33;;;;;;;-145.68;38.73;71201.84;10376339;28;20604;-66
2023/08/25 10:39:46;;;;;;;3.55;1.50;;;;;;;-145.68;38.38;71121.94;10398962;28;20219;-66
2023/08/25 10:44:52;;;;;;;5.32;1.60;;;;;;;-145.68;37.08;71038.03;10374816;28;20248;-67
2023/08/25 10:50:00;;;;;;;9.20;2.10;;;;;;;-145.68;39.59;71253.78;10388747;28;20581;-67
2023/08/25 10:55:28;;;;;;;2.03;1.80;;;;;;;-145.68;39.81;71295.72;10407554;28;20189;-66
2023/08/25 11:00:33;;;;;;;5.43;1.63;;;;;;;-145.68;39.49;71233.81;10391325;28;20217;-67
2023/08/25 11:05:38;;;;;;;5.55;1.73;;;;;;;-145.68;37.88;71209.84;10399410;28;20248;-66
2023/08/25 11:10:38;;;;;;;5.90;2.10;;;;;;;-145.68;37.39;71133.91;10397538;28;20237;-66
2023/08/25 11:15:38;;;;;;;6.32;2.00;;;;;;;-145.68;41.06;71507.50;10386068;28;20192;-67
2023/08/25 11:20:44;;;;;;;8.77;2.50;;;;;;;-145.68;41.07;71385.63;10412175;28;20609;-66
2023/08/25 11:25:44;;;;;;;5.28;2.42;;;;;;;-145.68;42.13;71461.53;10380389;28;20570;-67
2023/08/25 11:30:45;;;;;;;4.35;2.40;;;;;;;-145.68;41.61;71385.63;10405219;28;20256;-66
2023/08/25 11:35:45;;;;;;;5.57;2.33;;;;;;;-145.68;42.18;71487.50;10394868;28;20244;-66
2023/08/25 11:40:46;;;;;;;6.00;2.40;;;;;;;-145.68;43.40;71493.50;10382310;28;20224;-66
2023/08/25 11:45:46;;;;;;;5.22;2.70;;;;;;;-145.68;44.88;71557.44;10379994;28;20189;-66
2023/08/25 11:50:47;;;;;;;6.22;2.38;;;;;;;-145.68;45.10;71577.41;10396528;28;20224;-66
2023/08/25 11:56:00;;;;;;;4.00;2.40;;;;;;;-145.68;49.39;71587.41;10377490;28;20216;-66
2023/08/25 12:01:06;;;;;;;4.30;2.97;;;;;;;-145.68;52.24;71641.34;10397262;28;20868;-66
2023/08/25 12:06:08;;;;;;;15.85;3.78;;;;;;;-145.68;51.80;71641.34;10407601;28;20200;-67
2023/08/25 12:11:10;;;;;;;7.38;2.72;;;;;;;-145.68;49.30;71599.41;10396726;28;20225;-67
2023/08/25 12:16:13;;;;;;;7.50;2.70;;;;;;;-145.68;49.62;71797.19;10378723;28;20201;-66
2023/08/25 12:21:13;;;;;;;4.88;2.70;;;;;;;-145.68;50.91;71813.16;10394696;28;20217;-66
2023/08/25 12:26:14;;;;;;;5.45;2.63;;;;;;;-145.68;50.91;71901.09;10378853;28;20224;-67
2023/08/25 12:31:14;;;;;;;6.38;4.32;;;;;;;-145.68;51.04;71933.03;10400865;28;20209;-66
2023/08/25 12:36:15;;;;;;;3.75;2.15;;;;;;;-145.68;51.41;71941.03;10426903;28;20197;-66
2023/08/25 12:41:15;;;;;;;4.88;2.53;;;;;;;-145.68;52.80;71973.00;10421945;28;20582;-66
2023/08/25 12:46:16;;;;;;;6.35;2.50;;;;;;;-145.68;52.69;71965.00;10400187;28;20197;-66
2023/08/25 12:51:16;;;;;;;6.75;2.90;;;;;;;-145.68;52.41;71927.06;10402336;28;20228;-66
2023/08/25 12:56:17;;;;;;;5.15;3.25;;;;;;;-145.68;53.53;71939.03;10380910;28;20201;-66
2023/08/25 13:01:17;;;;;;;5.10;2.65;;;;;;;-145.68;53.51;71847.13;10389208;28;20221;-66
2023/08/25 13:06:17;;;;;;;7.72;2.83;;;;;;;-145.68;51.96;71813.16;10370030;28;20205;-66
2023/08/25 13:11:18;;;;;;;4.05;2.13;;;;;;;-145.68;51.86;71785.19;10400428;23;20248;-68
2023/08/25 13:16:18;;;;;;;11.05;2.83;;;;;;;-145.68;50.66;71767.22;10409904;28;20706;-69
2023/08/25 13:21:18;;;;;;;6.85;3.22;;;;;;;-145.68;49.93;71693.28;10410782;28;20220;-69
2023/08/25 13:26:19;;;;;;;4.93;2.47;;;;;;;-145.68;48.58;71673.31;10411110;28;20226;-69
2023/08/25 13:31:19;;;;;;;10.02;2.50;;;;;;;-145.68;47.32;71553.44;10409865;28;20208;-69
2023/08/25 13:36:21;;;;;;;4.60;2.33;;;;;;;-145.68;44.86;71625.38;10410348;28;20692;-69
2023/08/25 13:41:21;;;;;;;5.20;2.60;;;;;;;-145.68;45.18;71667.31;10409062;28;20224;-70
2023/08/25 13:46:21;;;;;;;5.53;2.45;;;;;;;-145.68;43.62;71597.41;10410895;28;20210;-68
2023/08/25 13:51:22;;;;;;;4.03;1.95;;;;;;;-145.68;43.81;71573.41;10447622;28;20212;-67
2023/08/25 13:56:22;;;;;;;4.78;2.40;;;;;;;-145.68;44.60;71629.38;10439429;28;20204;-68
2023/08/25 14:01:23;;;;;;;4.78;2.00;;;;;;;-145.68;44.80;71681.31;10444219;28;20269;-68
2023/08/25 14:06:23;;;;;;;2.97;2.03;;;;;;;-145.68;44.62;71627.38;10450772;28;20226;-68
2023/08/25 14:11:23;;;;;;;3.80;2.17;;;;;;;-145.68;44.36;71607.38;10450717;28;20281;-69
2023/08/25 14:16:24;;;;;;;6.30;2.15;;;;;;;-145.68;43.46;71533.47;10449611;28;20203;-68
2023/08/25 14:21:24;;;;;;;3.83;1.90;;;;;;;-145.68;44.29;71623.38;10450494;28;20242;-67
2023/08/25 14:26:25;;;;;;;5.97;1.90;;;;;;;-145.68;42.93;71529.47;10450219;28;20199;-68
2023/08/25 14:31:25;;;;;;;4.95;2.22;;;;;;;-145.68;44.59;71599.41;10450577;28;20570;-68
2023/08/25 14:36:26;;;;;;;3.35;2.15;;;;;;;-145.68;44.23;71557.44;10448929;28;20183;-69
2023/08/25 14:41:27;;;;;;;8.13;2.10;;;;;;;-145.68;44.42;71611.38;10448449;28;20289;-68
2023/08/25 14:46:37;;;;;;;3.65;2.30;;;;;;;-145.68;44.78;71611.38;10455466;28;20267;-68
2023/08/25 14:51:38;;;;;;;4.00;2.00;;;;;;;-145.68;45.39;71693.28;10457242;28;20211;-68
2023/08/25 14:56:38;;;;;;;2.58;2.00;;;;;;;-145.68;45.87;71705.28;10457570;28;20572;-68
2023/08/25 15:01:38;;;;;;;3.00;2.30;;;;;;;-145.68;46.74;71741.25;10456644;28;20235;-67
2023/08/25 15:06:40;;;;;;;7.25;2.50;;;;;;;-145.68;46.21;71705.28;10457338;28;20188;-68
2023/08/25 15:11:40;;;;;;;2.90;2.20;;;;;;;-145.68;46.76;71765.22;10457208;28;20265;-68
2023/08/25 15:16:40;;;;;;;5.88;2.60;;;;;;;-145.68;47.21;71765.22;10457085;28;20230;-68
2023/08/25 15:21:41;;;;;;;3.53;2.13;;;;;;;-145.68;47.07;71767.22;10455150;28;20694;-67
2023/08/25 15:26:42;;;;;;;4.40;2.80;;;;;;;-145.68;47.17;71737.25;10472927;28;20195;-68
2023/08/25 15:31:42;;;;;;;6.82;2.58;;;;;;;-145.68;47.23;71751.22;10460854;28;20216;-68
2023/08/25 15:36:42;;;;;;;3.72;2.05;;;;;;;-145.68;46.41;71777.22;10470600;28;20196;-68
2023/08/25 15:41:44;;;;;;;5.18;2.33;;;;;;;-145.68;46.13;71771.22;10455890;28;20227;-68
2023/08/25 15:46:45;;;;;;;5.32;1.90;;;;;;;-145.68;46.49;71783.19;10496018;28;20195;-68
2023/08/25 15:51:45;;;;;;;5.75;1.60;;;;;;;-145.68;46.12;71787.19;10474829;28;20211;-68
2023/08/25 15:56:45;;;;;;;3.60;1.67;;;;;;;-145.68;45.98;71769.22;10455877;28;20234;-67
2023/08/25 16:01:46;;;;;;;3.25;1.45;;;;;;;-145.68;45.94;71775.22;10455127;28;20227;-68
2023/08/25 16:06:46;;;;;;;2.65;1.90;;;;;;;-145.68;46.24;71791.19;10450922;28;20184;-68
2023/08/25 16:11:47;;;;;;;2.22;1.85;;;;;;;-145.68;46.22;71795.19;10454779;28;20250;-68
2023/08/25 16:16:47;;;;;;;3.55;2.22;;;;;;;-145.68;46.74;71805.19;10456127;28;20195;-68
2023/08/25 16:21:47;;;;;;;2.45;2.25;;;;;;;-145.68;47.70;71825.16;10456005;28;20231;-68
2023/08/25 16:26:48;;;;;;;4.20;2.25;;;;;;;-145.68;47.71;71849.13;10455766;28;20191;-68
2023/08/25 16:31:48;;;;;;;3.13;1.95;;;;;;;-145.68;47.39;71837.16;10455799;28;20203;-68
2023/08/25 16:36:48;;;;;;;3.90;1.95;;;;;;;-145.68;47.47;71817.16;10455525;28;20192;-68
2023/08/25 16:41:49;;;;;;;3.78;2.03;;;;;;;-145.68;47.70;71819.16;10454988;28;20328;-69
2023/08/25 16:46:49;;;;;;;3.25;2.10;;;;;;;-145.68;48.27;71829.16;10455333;28;20194;-68
2023/08/25 16:51:49;;;;;;;5.43;1.90;;;;;;;-145.68;48.38;71825.16;10454621;28;20204;-68
2023/08/25 16:56:50;;;;;;;3.65;2.00;;;;;;;-145.68;48.33;71827.16;10454372;28;20192;-68
2023/08/25 17:01:51;;;;;;;2.42;1.80;;;;;;;-145.68;48.65;71847.13;10454165;28;20274;-67
2023/08/25 17:06:51;;;;;;;2.42;2.03;;;;;;;-145.68;49.04;71859.13;10453454;28;20192;-68
2023/08/25 17:11:51;;;;;;;1.90;1.77;;;;;;;-145.68;49.03;71865.13;10454148;28;20232;-68
2023/08/25 17:16:52;;;;;;;3.72;2.00;;;;;;;-145.68;49.85;71913.06;10453781;28;20211;-68
2023/08/25 17:21:52;;;;;;;3.05;1.90;;;;;;;-145.68;49.24;71883.09;10453514;28;20312;-68
2023/08/25 17:26:52;;;;;;;2.75;1.70;;;;;;;-145.68;49.93;71915.06;10453567;28;20188;-67
2023/08/25 17:31:53;;;;;;;2.58;1.88;;;;;;;-145.68;49.98;71917.06;10453423;28;20211;-67
2023/08/25 17:36:53;;;;;;;2.92;2.00;;;;;;;-145.68;50.86;71931.06;10453107;28;20192;-67
2023/08/25 17:41:54;;;;;;;3.22;2.00;;;;;;;-145.68;51.55;71923.06;10452906;28;20223;-67
2023/08/25 17:46:54;;;;;;;4.32;2.22;;;;;;;-145.68;52.06;71943.03;10452666;28;20326;-67
2023/08/25 17:51:54;;;;;;;3.00;2.25;;;;;;;-145.68;52.59;71941.03;10452212;28;20574;-67
2023/08/25 17:56:55;;;;;;;4.82;2.00;;;;;;;-145.68;52.53;71945.03;10451769;28;20246;-68
2023/08/25 18:01:55;;;;;;;2.97;2.17;;;;;;;-145.68;53.28;71975.00;10451772;28;20231;-66
2023/08/25 18:06:55;;;;;;;4.28;2.47;;;;;;;-145.68;53.75;71989.00;10451722;28;20195;-67
2023/08/25 18:11:56;;;;;;;4.15;2.17;;;;;;;-145.68;54.04;71985.00;10451283;28;20232;-67
2023/08/25 18:16:56;;;;;;;2.58;2.17;;;;;;;-145.68;54.38;72006.97;10455416;28;20196;-67
2023/08/25 18:21:57;;;;;;;6.20;2.33;;;;;;;-145.68;54.44;72020.97;10459925;28;20276;-67
2023/08/25 18:26:57;;;;;;;4.10;2.40;;;;;;;-145.68;54.52;72028.94;10460234;28;20784;-67
2023/08/25 18:31:57;;;;;;;4.78;2.00;;;;;;;-145.68;54.61;72042.94;10459729;28;20211;-67
2023/08/25 18:36:58;;;;;;;4.03;2.33;;;;;;;-145.68;54.39;72046.94;10459534;28;20304;-66
2023/08/25 18:41:58;;;;;;;3.50;2.00;;;;;;;-145.68;54.90;72058.94;10459341;28;20242;-66
2023/08/25 18:47:00;;;;;;;3.88;2.20;;;;;;;-145.68;55.31;72092.91;10459001;28;20207;-67
2023/08/25 18:52:00;;;;;;;3.58;1.90;;;;;;;-145.68;55.54;72094.88;10459382;28;20627;-68
2023/08/25 18:57:00;;;;;;;4.55;2.13;;;;;;;-145.68;56.01;72132.84;10458640;28;20196;-68
2023/08/25 19:02:01;;;;;;;3.40;2.20;;;;;;;-145.68;56.20;72148.84;10458638;28;20219;-68
2023/08/25 19:07:01;;;;;;;3.92;2.20;;;;;;;-145.68;56.38;72166.81;10458505;28;20187;-68
2023/08/25 19:12:01;;;;;;;3.15;2.28;;;;;;;-145.68;56.87;72184.81;10464856;23;20251;-63
2023/08/25 19:17:02;;;;;;;3.78;2.40;;;;;;;-145.68;57.10;72196.78;10433319;28;20270;-64
2023/08/25 19:22:02;;;;;;;4.38;2.30;;;;;;;-145.68;57.62;72210.78;10438289;28;20219;-64
2023/08/25 19:27:03;;;;;;;5.50;2.53;;;;;;;-145.68;58.20;72224.78;10496370;28;20191;-64
2023/08/25 19:32:04;;;;;;;5.50;2.28;;;;;;;-145.68;58.48;72244.75;10498515;28;20238;-63
2023/08/25 19:37:04;;;;;;;2.83;2.10;;;;;;;-145.68;58.94;72252.75;10482727;28;20214;-64
2023/08/25 19:42:05;;;;;;;2.90;2.03;;;;;;;-145.68;58.85;72252.75;10456667;28;20231;-64
2023/08/25 19:47:05;;;;;;;3.92;2.08;;;;;;;-145.68;59.49;72270.72;10456153;28;20200;-63
2023/08/25 19:52:05;;;;;;;3.47;2.00;;;;;;;-145.68;59.98;72288.72;10456248;28;20207;-64
2023/08/25 19:57:06;;;;;;;5.47;2.40;;;;;;;-145.68;60.54;72306.69;10456660;28;20191;-64
2023/08/25 20:02:06;;;;;;;6.60;2.25;;;;;;;-145.68;61.36;72322.69;10456519;28;20828;-65
2023/08/25 20:07:06;;;;;;;8.23;2.38;;;;;;;-145.68;61.97;72340.66;10456570;28;20188;-65
2023/08/25 20:12:07;;;;;;;11.65;2.63;;;;;;;-145.68;62.05;72350.66;10456241;28;20224;-64
2023/08/25 20:17:08;;;;;;;4.60;2.20;;;;;;;-145.68;61.95;72342.66;10455998;28;20532;-65
2023/08/25 20:22:08;;;;;;;4.97;2.50;;;;;;;-145.68;62.61;72376.63;10455825;28;20219;-64
2023/08/25 20:27:08;;;;;;;4.10;2.22;;;;;;;-145.68;63.67;72416.59;10455742;28;20192;-66
2023/08/25 20:32:09;;;;;;;2.75;2.35;;;;;;;-145.68;66.37;72454.56;10455662;28;20208;-65
2023/08/25 20:37:09;;;;;;;5.75;2.85;;;;;;;-145.68;69.60;72502.53;10455247;28;20197;-65
2023/08/25 20:42:09;;;;;;;3.53;2.40;;;;;;;-145.68;70.83;72502.53;10454782;28;20238;-66
2023/08/25 20:47:10;;;;;;;4.57;2.58;;;;;;;-145.68;75.38;72544.50;10455103;28;20191;-66
2023/08/25 20:52:10;;;;;;;4.93;2.78;;;;;;;-145.68;77.73;72550.47;10454538;28;20208;-66
2023/08/25 20:57:11;;;;;;;3.92;2.65;;;;;;;-145.68;74.85;72498.53;10454837;28;20191;-66
2023/08/25 21:02:11;;;;;;;5.00;2.70;;;;;;;-145.68;72.60;72460.56;10453943;28;20339;-66
2023/08/25 21:07:11;;;;;;;4.80;3.00;;;;;;;-145.68;70.83;72444.56;10454149;28;20275;-66
2023/08/25 21:12:12;;;;;;;7.65;2.83;;;;;;;-145.68;69.61;72420.59;10453769;28;20744;-66
2023/08/25 21:17:12;;;;;;;2.58;2.38;;;;;;;-145.68;68.78;72406.59;10453656;28;20242;-66
2023/08/25 21:22:13;;;;;;;5.05;2.83;;;;;;;-145.68;67.34;72380.63;10453747;28;20251;-66
2023/08/25 21:27:13;;;;;;;5.80;2.92;;;;;;;-145.68;66.41;72374.63;10453160;28;20204;-65
2023/08/25 21:32:14;;;;;;;8.13;2.95;;;;;;;-145.68;65.41;72358.66;10453495;28;20212;-66
2023/08/25 21:37:14;;;;;;;5.57;2.70;;;;;;;-145.68;65.29;72362.66;10453064;28;20207;-65
2023/08/25 21:42:15;;;;;;;4.45;2.53;;;;;;;-145.68;64.85;72364.63;10452764;28;20220;-66
2023/08/25 21:47:15;;;;;;;7.05;3.03;;;;;;;-145.68;65.07;72376.63;10452812;28;20258;-66
2023/08/25 21:52:18;;;;;;;5.10;2.55;;;;;;;-145.68;65.00;72366.63;10467370;28;20219;-65
2023/08/25 21:57:19;;;;;;;4.35;2.50;;;;;;;-145.68;65.30;72362.66;10471111;28;20196;-66
2023/08/25 22:02:20;;;;;;;3.83;2.75;;;;;;;-145.68;65.49;72348.66;10471970;28;20211;-66
2023/08/25 22:07:20;;;;;;;3.35;2.60;;;;;;;-145.68;66.05;72348.66;10471064;28;20192;-65
2023/08/25 22:12:21;;;;;;;3.78;2.50;;;;;;;-145.68;66.33;72358.66;10456066;28;20710;-65
2023/08/25 22:17:24;;;;;;;4.75;2.95;;;;;;;-145.68;66.80;72372.63;10452138;28;20196;-65
2023/08/25 22:22:26;;;;;;;2.90;2.60;;;;;;;-145.68;68.15;72396.63;10452045;28;20224;-65
2023/08/25 22:27:26;;;;;;;8.73;3.22;;;;;;;-145.68;67.84;72380.63;10449902;28;20724;-65
2023/08/25 22:32:26;;;;;;;5.32;3.67;;;;;;;-145.68;67.53;72360.66;10451897;28;20264;-65
2023/08/25 22:37:27;;;;;;;6.00;4.20;;;;;;;-145.68;67.51;72360.66;10451777;28;20286;-65
2023/08/25 22:42:27;;;;;;;6.90;4.65;;;;;;;-145.68;67.06;72350.66;10451514;28;20223;-64
2023/08/25 22:47:28;;;;;;;8.40;5.57;;;;;;;-145.68;67.25;72360.66;10451706;28;20211;-66